createdAt,value
2022-11-12T00:01:46.514Z,103083.56
2022-11-12T00:05:08.304Z,103081.78
2022-11-12T00:08:30.862Z,103080.94
2022-11-12T00:11:52.083Z,103073.81
2022-11-12T00:15:13.972Z,103075.59
2022-11-12T00:18:35.442Z,103071.16
2022-11-12T00:21:56.898Z,103078.25
2022-11-12T00:25:19.641Z,103085.41
2022-11-12T00:28:40.983Z,103081.81
2022-11-12T00:32:02.329Z,103076.50
2022-11-12T00:35:23.520Z,103073.81
2022-11-12T00:38:44.759Z,103078.25
2022-11-12T00:42:07.439Z,103072.94
2022-11-12T00:45:28.648Z,103072.94
2022-11-12T00:48:49.956Z,103073.81
2022-11-12T00:52:11.411Z,103079.16
2022-11-12T00:55:32.632Z,103076.50
2022-11-12T00:58:55.435Z,103079.16
2022-11-12T01:02:17.093Z,103080.03
2022-11-12T01:05:38.369Z,103076.50
2022-11-12T01:08:59.535Z,103082.75
2022-11-12T01:12:20.686Z,103086.25
2022-11-12T01:15:43.766Z,103071.16
2022-11-12T01:19:06.927Z,103079.16
2022-11-12T01:22:28.386Z,103081.81
2022-11-12T01:25:49.726Z,103077.38
2022-11-12T01:29:11.132Z,103089.81
2022-11-12T01:32:37.861Z,103089.81
2022-11-12T01:35:59.848Z,103088.94
2022-11-12T01:39:21.406Z,103085.41
2022-11-12T01:42:42.674Z,103093.38
2022-11-12T01:46:07.081Z,103080.94
2022-11-12T01:49:36.725Z,103088.06
2022-11-12T01:53:03.077Z,103088.06
2022-11-12T01:56:27.767Z,103091.59
2022-11-12T01:59:51.381Z,103089.84
2022-11-12T02:03:20.074Z,103088.06
2022-11-12T02:06:44.298Z,103087.19
2022-11-12T02:10:07.553Z,103093.41
2022-11-12T02:13:46.916Z,103090.72
2022-11-12T02:17:08.428Z,103096.97
2022-11-12T02:20:34.615Z,103098.75
2022-11-12T02:24:02.367Z,103103.19
2022-11-12T02:27:24.990Z,103106.72
2022-11-12T02:30:48.685Z,103105.84
2022-11-12T02:34:10.224Z,103106.69
2022-11-12T02:37:31.435Z,103104.03
2022-11-12T02:40:54.374Z,103104.94
2022-11-12T02:44:15.779Z,103110.25
2022-11-12T02:47:37.032Z,103120.03
2022-11-12T02:50:58.386Z,103112.06
2022-11-12T02:54:19.697Z,103118.28
2022-11-12T02:57:42.700Z,103114.78
2022-11-12T03:01:04.076Z,103123.63
2022-11-12T03:04:25.532Z,103128.06
2022-11-12T03:07:47.430Z,103133.41
2022-11-12T03:11:11.485Z,103133.41
2022-11-12T03:14:34.481Z,103120.97
2022-11-12T03:17:56.102Z,103126.34
2022-11-12T03:21:17.334Z,103127.19
2022-11-12T03:24:38.606Z,103133.44
2022-11-12T03:28:00.815Z,103134.31
2022-11-12T03:31:23.828Z,103136.09
2022-11-12T03:34:45.200Z,103135.19
2022-11-12T03:38:06.981Z,103132.53
2022-11-12T03:41:28.285Z,103135.19
2022-11-12T03:44:49.477Z,103125.47
2022-11-12T03:48:12.244Z,103135.22
2022-11-12T03:51:33.838Z,103139.63
2022-11-12T03:54:55.146Z,103132.56
2022-11-12T03:58:16.282Z,103147.66
2022-11-12T04:01:38.515Z,103147.66
2022-11-12T04:05:19.318Z,103145.88
2022-11-12T04:08:40.749Z,103145.88
2022-11-12T04:12:22.824Z,103149.41
2022-11-12T04:15:44.449Z,103148.56
2022-11-12T04:19:24.842Z,103156.56
2022-11-12T04:22:47.710Z,103159.22
2022-11-12T04:26:26.012Z,103162.75
2022-11-12T04:30:05.505Z,103166.31
2022-11-12T04:33:26.959Z,103161.88
2022-11-12T04:36:48.113Z,103161.84
2022-11-12T04:40:26.223Z,103168.06
2022-11-12T04:44:05.134Z,103164.53
2022-11-12T04:47:26.922Z,103162.75
2022-11-12T04:50:51.395Z,103162.75
2022-11-12T04:54:12.905Z,103162.75
2022-11-12T04:57:35.330Z,103169.88
2022-11-12T05:00:56.545Z,103160.06
2022-11-12T05:04:18.280Z,103161.00
2022-11-12T05:07:39.623Z,103165.41
2022-11-12T05:11:00.899Z,103164.53
2022-11-12T05:14:23.635Z,103162.75
2022-11-12T05:17:45.910Z,103166.25
2022-11-12T05:21:21.041Z,103170.72
2022-11-12T05:24:44.330Z,103166.25
2022-11-12T05:28:07.056Z,103160.94
2022-11-12T05:31:30.192Z,103164.53
2022-11-12T05:34:51.661Z,103160.06
2022-11-12T05:38:12.912Z,103157.41
2022-11-12T05:41:58.085Z,103149.41
2022-11-12T05:45:15.677Z,103168.97
2022-11-12T05:48:38.532Z,103172.53
2022-11-12T05:51:59.956Z,103171.66
2022-11-12T05:55:21.239Z,103173.38
2022-11-12T05:58:42.406Z,103166.31
2022-11-12T06:02:03.584Z,103184.03
2022-11-12T06:05:26.715Z,103168.06
2022-11-12T06:08:48.112Z,103178.72
2022-11-12T06:12:09.360Z,103174.31
2022-11-12T06:15:32.829Z,103182.28
2022-11-12T06:18:57.099Z,103175.19
2022-11-12T06:22:20.046Z,103181.41
2022-11-12T06:25:41.435Z,103175.19
2022-11-12T06:29:02.782Z,103179.66
2022-11-12T06:32:24.672Z,103189.41
2022-11-12T06:35:46.156Z,103200.97
2022-11-12T06:39:08.816Z,103201.81
2022-11-12T06:42:29.963Z,103203.63
2022-11-12T06:45:51.079Z,103204.47
2022-11-12T06:49:12.369Z,103216.94
2022-11-12T06:52:33.669Z,103220.47
2022-11-12T06:56:02.919Z,103208.94
2022-11-12T06:59:24.456Z,103207.16
2022-11-12T07:02:46.067Z,103223.13
2022-11-12T07:06:09.742Z,103208.94
2022-11-12T07:09:31.333Z,103221.38
2022-11-12T07:12:56.581Z,103229.34
2022-11-12T07:16:19.597Z,103217.81
2022-11-12T07:19:41.826Z,103231.13
2022-11-12T07:23:03.309Z,103232.91
2022-11-12T07:26:27.524Z,103232.00
2022-11-12T07:29:50.179Z,103216.03
2022-11-12T07:33:11.641Z,103231.97
2022-11-12T07:36:33.095Z,103231.13
2022-11-12T07:39:54.470Z,103238.19
2022-11-12T07:43:15.770Z,103250.63
2022-11-12T07:46:38.660Z,103236.41
2022-11-12T07:50:00.349Z,103247.97
2022-11-12T07:53:21.506Z,103234.66
2022-11-12T07:56:42.798Z,103230.22
2022-11-12T08:00:04.916Z,103234.66
2022-11-12T08:03:27.810Z,103236.44
2022-11-12T08:06:49.327Z,103245.31
2022-11-12T08:10:11.547Z,103246.22
2022-11-12T08:13:32.900Z,103247.97
2022-11-12T08:16:54.045Z,103237.31
2022-11-12T08:20:16.814Z,103238.19
2022-11-12T08:23:38.405Z,103240.84
2022-11-12T08:26:59.794Z,103244.38
2022-11-12T08:30:21.404Z,103246.19
2022-11-12T08:33:43.175Z,103246.16
2022-11-12T08:37:05.813Z,103245.28
2022-11-12T08:40:27.505Z,103245.28
2022-11-12T08:43:48.718Z,103262.09
2022-11-12T08:47:10.106Z,103268.31
2022-11-12T08:50:31.885Z,103251.47
2022-11-12T08:53:54.835Z,103258.56
2022-11-12T08:57:16.496Z,103257.66
2022-11-12T09:00:40.267Z,103259.44
2022-11-12T09:04:01.502Z,103261.25
2022-11-12T09:07:47.972Z,103267.47
2022-11-12T09:11:05.967Z,103267.47
2022-11-12T09:14:27.297Z,103260.34
2022-11-12T09:17:49.053Z,103281.66
2022-11-12T09:21:13.118Z,103275.47
2022-11-12T09:24:34.391Z,103262.13
2022-11-12T09:27:57.034Z,103282.56
2022-11-12T09:31:18.235Z,103277.22
2022-11-12T09:34:39.610Z,103259.44
2022-11-12T09:38:01.062Z,103281.66
2022-11-12T09:41:27.996Z,103275.44
2022-11-12T09:44:57.833Z,103277.22
2022-11-12T09:48:23.249Z,103280.75
2022-11-12T09:51:50.688Z,103284.31
2022-11-12T09:55:19.982Z,103271.91
2022-11-12T09:58:41.149Z,103285.22
2022-11-12T10:02:19.260Z,103301.19
2022-11-12T10:05:43.804Z,103265.69
2022-11-12T10:09:10.615Z,103287.88
2022-11-12T10:12:43.549Z,103279.88
2022-11-12T10:16:51.098Z,103278.09
2022-11-12T10:20:19.846Z,103273.66
2022-11-12T10:23:44.717Z,103280.75
2022-11-12T10:27:16.636Z,103272.78
2022-11-12T10:30:38.425Z,103266.56
2022-11-12T10:34:16.041Z,103273.66
2022-11-12T10:37:43.860Z,103260.34
2022-11-12T10:41:20.346Z,103271.00
2022-11-12T10:44:43.241Z,103244.34
2022-11-12T10:48:04.506Z,103247.00
2022-11-12T10:51:28.586Z,103247.88
2022-11-12T10:55:07.263Z,103242.53
2022-11-12T10:58:28.883Z,103238.09
2022-11-12T11:01:56.610Z,103241.63
2022-11-12T11:05:31.956Z,103245.16
2022-11-12T11:08:54.812Z,103250.50
2022-11-12T11:12:26.954Z,103238.06
2022-11-12T11:16:01.793Z,103242.50
2022-11-12T11:19:23.722Z,103222.97
2022-11-12T11:22:48.061Z,103228.31
2022-11-12T11:26:23.601Z,103245.19
2022-11-12T11:30:02.830Z,103219.41
2022-11-12T11:33:35.250Z,103225.63
2022-11-12T11:37:03.849Z,103222.94
2022-11-12T11:40:30.062Z,103214.06
2022-11-12T11:44:11.204Z,103222.94
2022-11-12T11:48:00.510Z,103224.72
2022-11-12T11:51:38.868Z,103216.72
2022-11-12T11:55:15.726Z,103214.94
2022-11-12T11:59:04.290Z,103208.72
2022-11-12T12:02:45.168Z,103203.41
2022-11-12T12:06:20.870Z,103196.28
2022-11-12T12:09:47.733Z,103204.28
2022-11-12T12:13:17.746Z,103202.50
2022-11-12T12:16:56.109Z,103196.28
2022-11-12T12:20:22.876Z,103203.41
2022-11-12T12:23:49.726Z,103205.16
2022-11-12T12:27:15.244Z,103198.06
2022-11-12T12:30:40.948Z,103206.94
2022-11-12T12:34:06.848Z,103199.88
2022-11-12T12:37:38.602Z,103214.94
2022-11-12T12:41:06.653Z,103205.19
2022-11-12T12:44:45.927Z,103198.97
2022-11-12T12:48:13.789Z,103201.63
2022-11-12T12:51:35.687Z,103210.53
2022-11-12T12:54:59.667Z,103202.53
2022-11-12T12:58:28.452Z,103206.94
2022-11-12T13:01:58.192Z,103197.19
2022-11-12T13:05:31.289Z,103200.75
2022-11-12T13:08:57.321Z,103198.09
2022-11-12T13:12:25.836Z,103191.00
2022-11-12T13:15:48.659Z,103187.44
2022-11-12T13:19:10.119Z,103191.91
2022-11-12T13:22:49.246Z,103189.22
2022-11-12T13:26:48.471Z,103194.56
2022-11-12T13:30:49.844Z,103190.13
2022-11-12T13:34:22.585Z,103193.66
2022-11-12T13:37:45.587Z,103189.22
2022-11-12T13:41:15.984Z,103186.56
2022-11-12T13:44:37.521Z,103189.22
2022-11-12T13:47:59.197Z,103187.44
2022-11-12T13:51:29.183Z,103189.22
2022-11-12T13:55:02.173Z,103187.47
2022-11-12T13:58:29.479Z,103182.16
2022-11-12T14:01:51.791Z,103185.69
2022-11-12T14:05:17.251Z,103185.69
2022-11-12T14:08:58.920Z,103188.38
2022-11-12T14:12:40.333Z,103185.69
2022-11-12T14:16:30.813Z,103183.03
2022-11-12T14:20:26.037Z,103183.91
2022-11-12T14:23:50.664Z,103182.16
2022-11-12T14:27:34.120Z,103188.34
2022-11-12T14:30:55.479Z,103182.16
2022-11-12T14:34:28.203Z,103179.50
2022-11-12T14:37:52.952Z,103177.72
2022-11-12T14:41:21.566Z,103182.16
2022-11-12T14:44:43.007Z,103181.25
2022-11-12T14:48:09.790Z,103185.69
2022-11-12T14:51:33.497Z,103188.38
2022-11-12T14:54:58.853Z,103182.13
2022-11-12T14:58:23.870Z,103188.38
2022-11-12T15:05:58.858Z,103185.66
2022-11-12T15:09:32.336Z,103184.78
2022-11-12T15:12:53.544Z,103187.47
2022-11-12T15:16:22.484Z,103186.59
2022-11-12T15:19:44.128Z,103175.94
2022-11-12T15:23:06.083Z,103176.81
2022-11-12T15:26:34.455Z,103177.72
2022-11-12T15:30:16.080Z,103172.38
2022-11-12T15:33:38.790Z,103178.63
2022-11-12T15:37:03.225Z,103184.81
2022-11-12T15:40:24.596Z,103181.28
2022-11-12T15:43:46.048Z,103188.38
2022-11-12T15:47:12.254Z,103185.69
2022-11-12T15:50:34.983Z,103189.25
2022-11-12T15:53:56.294Z,103186.59
2022-11-12T15:57:19.718Z,103191.03
2022-11-12T16:00:40.924Z,103190.13
2022-11-12T16:04:02.230Z,103204.34
2022-11-12T16:07:24.808Z,103206.13
2022-11-12T16:10:47.378Z,103199.94
2022-11-12T16:14:13.898Z,103202.59
2022-11-12T16:17:35.284Z,103197.25
2022-11-12T16:20:56.577Z,103191.94
2022-11-12T16:24:19.110Z,103192.81
2022-11-12T16:27:41.688Z,103186.63
2022-11-12T16:31:02.930Z,103194.59
2022-11-12T16:34:24.041Z,103194.59
2022-11-12T16:37:46.565Z,103190.13
2022-11-12T16:41:12.755Z,103194.59
2022-11-12T16:44:34.189Z,103194.59
2022-11-12T16:47:57.071Z,103198.16
2022-11-12T16:51:20.217Z,103199.03
2022-11-12T16:54:41.649Z,103205.25
2022-11-12T16:58:04.711Z,103194.59
2022-11-12T17:01:28.299Z,103196.41
2022-11-12T17:04:50.003Z,103188.41
2022-11-12T17:08:11.626Z,103186.59
2022-11-12T17:11:33.089Z,103191.06
2022-11-12T17:14:56.051Z,103192.81
2022-11-12T17:18:17.293Z,103195.47
2022-11-12T17:21:38.486Z,103192.81
2022-11-12T17:24:59.669Z,103184.84
2022-11-12T17:28:20.811Z,103190.16
2022-11-12T17:31:43.311Z,103191.06
2022-11-12T17:35:04.822Z,103191.06
2022-11-12T17:38:26.383Z,103186.63
2022-11-12T17:41:47.534Z,103187.53
2022-11-12T17:45:09.789Z,103194.63
2022-11-12T17:48:33.863Z,103194.63
2022-11-12T17:51:55.177Z,103193.72
2022-11-12T17:55:16.604Z,103198.19
2022-11-12T17:58:38.540Z,103193.75
2022-11-12T18:02:00.307Z,103199.06
2022-11-12T18:05:23.002Z,103192.84
2022-11-12T18:08:44.926Z,103188.41
2022-11-12T18:12:06.766Z,103184.84
2022-11-12T18:15:28.770Z,103184.84
2022-11-12T18:18:50.883Z,103184.84
2022-11-12T18:22:15.816Z,103187.53
2022-11-12T18:25:38.270Z,103184.84
2022-11-12T18:29:00.324Z,103184.88
2022-11-12T18:32:21.692Z,103191.94
2022-11-12T18:35:42.922Z,103186.63
2022-11-12T18:39:06.275Z,103183.09
2022-11-12T18:42:28.628Z,103183.09
2022-11-12T18:45:55.246Z,103191.94
2022-11-12T18:49:16.597Z,103186.63
2022-11-12T18:52:38.244Z,103189.28
2022-11-12T18:56:03.872Z,103189.28
2022-11-12T18:59:30.547Z,103193.69
2022-11-12T19:02:51.706Z,103197.25
2022-11-12T19:06:14.222Z,103195.47
2022-11-12T19:09:35.998Z,103194.59
2022-11-12T19:13:00.835Z,103200.78
2022-11-12T19:16:24.614Z,103204.34
2022-11-12T19:19:46.017Z,103201.69
2022-11-12T19:23:07.315Z,103206.13
2022-11-12T19:26:29.254Z,103204.31
2022-11-12T19:29:51.948Z,103202.53
2022-11-12T19:33:16.250Z,103200.78
2022-11-12T19:36:37.738Z,103215.88
2022-11-12T19:39:59.259Z,103203.47
2022-11-12T19:43:22.202Z,103211.44
2022-11-12T19:46:45.132Z,103199.91
2022-11-12T19:50:07.388Z,103214.13
2022-11-12T19:53:31.687Z,103204.31
2022-11-12T19:56:53.295Z,103197.25
2022-11-12T20:00:15.891Z,103199.88
2022-11-12T20:03:39.094Z,103192.81
2022-11-12T20:07:00.669Z,103204.31
2022-11-12T20:10:22.571Z,103204.31
2022-11-12T20:13:44.155Z,103198.13
2022-11-12T20:17:05.343Z,103196.31
2022-11-12T20:20:28.159Z,103194.56
2022-11-12T20:23:49.372Z,103198.13
2022-11-12T20:27:10.816Z,103191.03
2022-11-12T20:30:32.080Z,103192.78
2022-11-12T20:33:53.446Z,103200.78
2022-11-12T20:37:16.095Z,103204.38
2022-11-12T20:40:37.802Z,103200.81
2022-11-12T20:44:00.468Z,103209.69
2022-11-12T20:47:22.006Z,103221.25
2022-11-12T20:51:02.324Z,103215.91
2022-11-12T20:54:26.031Z,103207.91
2022-11-12T20:57:47.641Z,103207.00
2022-11-12T21:01:11.275Z,103207.00
2022-11-12T21:04:32.836Z,103205.25
2022-11-12T21:07:55.708Z,103205.25
2022-11-12T21:11:20.358Z,103199.03
2022-11-12T21:14:44.854Z,103202.59
2022-11-12T21:18:08.985Z,103202.59
2022-11-12T21:21:31.569Z,103207.91
2022-11-12T21:24:53.239Z,103195.47
2022-11-12T21:28:15.813Z,103197.25
2022-11-12T21:31:37.478Z,103191.03
2022-11-12T21:34:58.818Z,103184.81
2022-11-12T21:38:20.093Z,103179.47
2022-11-12T21:41:41.135Z,103169.72
2022-11-12T21:45:04.113Z,103172.38
2022-11-12T21:48:25.781Z,103175.03
2022-11-12T21:51:47.836Z,103171.50
2022-11-12T21:55:09.591Z,103165.31
2022-11-12T21:58:31.269Z,103163.53
2022-11-12T22:01:54.296Z,103170.63
2022-11-12T22:05:16.369Z,103156.44
2022-11-12T22:08:38.283Z,103162.63
2022-11-12T22:11:59.737Z,103157.31
2022-11-12T22:15:24.393Z,103154.66
2022-11-12T22:18:49.087Z,103151.97
2022-11-12T22:22:10.640Z,103156.44
2022-11-12T22:25:32.050Z,103150.22
2022-11-12T22:28:53.950Z,103151.09
2022-11-12T22:32:15.266Z,103146.59
2022-11-12T22:35:37.912Z,103151.00
2022-11-12T22:38:59.748Z,103147.41
2022-11-12T22:42:21.485Z,103145.63
2022-11-12T22:45:43.049Z,103142.03
2022-11-12T22:49:05.693Z,103150.00
2022-11-12T22:52:28.840Z,103141.94
2022-11-12T22:55:51.627Z,103136.63
2022-11-12T22:59:13.960Z,103143.69
2022-11-12T23:02:36.401Z,103135.66
2022-11-12T23:05:58.851Z,103135.66
2022-11-12T23:09:21.926Z,103138.34
2022-11-12T23:12:43.525Z,103141.91
2022-11-12T23:16:07.472Z,103133.94
2022-11-12T23:19:29.349Z,103127.72
2022-11-12T23:22:51.757Z,103128.63
2022-11-12T23:26:17.147Z,103125.06
2022-11-12T23:29:38.542Z,103119.75
2022-11-12T23:32:59.971Z,103119.75
2022-11-12T23:36:22.588Z,103121.56
2022-11-12T23:39:43.884Z,103120.69
2022-11-12T23:43:06.518Z,103127.81
2022-11-12T23:46:27.964Z,103126.91
2022-11-12T23:49:49.108Z,103124.25
2022-11-12T23:53:10.629Z,103116.28
2022-11-12T23:56:31.741Z,103120.75
2022-11-12T23:59:54.497Z,103120.75
